sensor_id;sensor_type;location;lat;lon;timestamp;pressure;altitude;pressure_sealevel;temperature
65316;BMP280;51920;53.952;10.292;2023-04-24T00:01:21;99607.53;;;13.08
65316;BMP280;51920;53.952;10.292;2023-04-24T00:03:48;99605.94;;;13.11
65316;BMP280;51920;53.952;10.292;2023-04-24T00:06:17;99606.59;;;13.15
65316;BMP280;51920;53.952;10.292;2023-04-24T00:08:44;99619.38;;;13.18
65316;BMP280;51920;53.952;10.292;2023-04-24T00:11:10;99609.22;;;13.02
65316;BMP280;51920;53.952;10.292;2023-04-24T00:13:37;99618.59;;;13.18
65316;BMP280;51920;53.952;10.292;2023-04-24T00:16:04;99617.72;;;13.04
65316;BMP280;51920;53.952;10.292;2023-04-24T00:18:31;99628.69;;;13.01
65316;BMP280;51920;53.952;10.292;2023-04-24T00:20:58;99609.72;;;12.81
65316;BMP280;51920;53.952;10.292;2023-04-24T00:23:25;99613.28;;;12.78
65316;BMP280;51920;53.952;10.292;2023-04-24T00:25:51;99603.88;;;12.62
65316;BMP280;51920;53.952;10.292;2023-04-24T00:28:18;99594.28;;;12.58
65316;BMP280;51920;53.952;10.292;2023-04-24T00:30:44;99586.91;;;12.58
65316;BMP280;51920;53.952;10.292;2023-04-24T00:33:11;99581.53;;;12.55
65316;BMP280;51920;53.952;10.292;2023-04-24T00:35:38;99588.72;;;12.45
65316;BMP280;51920;53.952;10.292;2023-04-24T00:38:04;99573.69;;;12.40
65316;BMP280;51920;53.952;10.292;2023-04-24T00:40:31;99578.31;;;12.40
65316;BMP280;51920;53.952;10.292;2023-04-24T00:42:58;99583.75;;;12.40
65316;BMP280;51920;53.952;10.292;2023-04-24T00:45:24;99573.41;;;12.35
65316;BMP280;51920;53.952;10.292;2023-04-24T00:47:52;99564.75;;;12.40
65316;BMP280;51920;53.952;10.292;2023-04-24T00:50:20;99550.00;;;12.41
65316;BMP280;51920;53.952;10.292;2023-04-24T00:52:47;99550.50;;;12.36
65316;BMP280;51920;53.952;10.292;2023-04-24T00:55:14;99547.78;;;12.36
65316;BMP280;51920;53.952;10.292;2023-04-24T00:57:41;99544.88;;;12.27
65316;BMP280;51920;53.952;10.292;2023-04-24T01:00:08;99559.00;;;12.38
65316;BMP280;51920;53.952;10.292;2023-04-24T01:02:39;99546.75;;;12.30
65316;BMP280;51920;53.952;10.292;2023-04-24T01:05:07;99549.41;;;12.33
65316;BMP280;51920;53.952;10.292;2023-04-24T01:07:35;99545.16;;;12.32
65316;BMP280;51920;53.952;10.292;2023-04-24T01:10:02;99545.63;;;12.27
65316;BMP280;51920;53.952;10.292;2023-04-24T01:12:28;99552.34;;;12.22
65316;BMP280;51920;53.952;10.292;2023-04-24T01:14:56;99539.41;;;12.10
65316;BMP280;51920;53.952;10.292;2023-04-24T01:17:23;99540.94;;;12.31
65316;BMP280;51920;53.952;10.292;2023-04-24T01:19:49;99540.63;;;12.45
65316;BMP280;51920;53.952;10.292;2023-04-24T01:22:19;99541.09;;;12.40
65316;BMP280;51920;53.952;10.292;2023-04-24T01:24:47;99531.75;;;12.41
65316;BMP280;51920;53.952;10.292;2023-04-24T01:27:13;99538.16;;;12.51
65316;BMP280;51920;53.952;10.292;2023-04-24T01:29:40;99529.97;;;12.35
65316;BMP280;51920;53.952;10.292;2023-04-24T01:32:08;99532.84;;;12.28
65316;BMP280;51920;53.952;10.292;2023-04-24T01:34:35;99522.38;;;12.26
65316;BMP280;51920;53.952;10.292;2023-04-24T01:37:03;99533.81;;;12.37
65316;BMP280;51920;53.952;10.292;2023-04-24T01:39:31;99545.28;;;12.45
65316;BMP280;51920;53.952;10.292;2023-04-24T01:41:59;99514.25;;;12.26
65316;BMP280;51920;53.952;10.292;2023-04-24T01:44:27;99538.06;;;12.38
65316;BMP280;51920;53.952;10.292;2023-04-24T01:46:55;99528.03;;;12.35
65316;BMP280;51920;53.952;10.292;2023-04-24T01:49:23;99521.59;;;12.25
65316;BMP280;51920;53.952;10.292;2023-04-24T01:51:49;99525.25;;;12.39
65316;BMP280;51920;53.952;10.292;2023-04-24T01:54:16;99513.63;;;12.38
65316;BMP280;51920;53.952;10.292;2023-04-24T01:56:43;99516.03;;;12.33
65316;BMP280;51920;53.952;10.292;2023-04-24T01:59:11;99515.50;;;12.21
65316;BMP280;51920;53.952;10.292;2023-04-24T02:01:38;99508.41;;;12.28
65316;BMP280;51920;53.952;10.292;2023-04-24T02:04:06;99506.03;;;12.30
65316;BMP280;51920;53.952;10.292;2023-04-24T02:06:34;99499.47;;;12.27
65316;BMP280;51920;53.952;10.292;2023-04-24T02:09:02;99498.88;;;12.19
65316;BMP280;51920;53.952;10.292;2023-04-24T02:11:29;99495.41;;;12.19
65316;BMP280;51920;53.952;10.292;2023-04-24T02:13:56;99490.41;;;12.17
65316;BMP280;51920;53.952;10.292;2023-04-24T02:16:23;99495.47;;;12.15
65316;BMP280;51920;53.952;10.292;2023-04-24T02:18:49;99492.53;;;12.06
65316;BMP280;51920;53.952;10.292;2023-04-24T02:21:16;99481.53;;;12.13
65316;BMP280;51920;53.952;10.292;2023-04-24T02:23:43;99485.28;;;12.19
65316;BMP280;51920;53.952;10.292;2023-04-24T02:26:11;99489.63;;;12.17
65316;BMP280;51920;53.952;10.292;2023-04-24T02:28:38;99481.28;;;12.08
65316;BMP280;51920;53.952;10.292;2023-04-24T02:31:04;99490.19;;;12.08
65316;BMP280;51920;53.952;10.292;2023-04-24T02:33:32;99481.19;;;12.11
65316;BMP280;51920;53.952;10.292;2023-04-24T02:35:59;99485.38;;;12.16
65316;BMP280;51920;53.952;10.292;2023-04-24T02:38:25;99482.81;;;12.09
65316;BMP280;51920;53.952;10.292;2023-04-24T02:40:52;99485.53;;;12.09
65316;BMP280;51920;53.952;10.292;2023-04-24T02:43:18;99482.72;;;12.12
65316;BMP280;51920;53.952;10.292;2023-04-24T02:45:45;99478.22;;;12.06
65316;BMP280;51920;53.952;10.292;2023-04-24T02:48:12;99473.91;;;12.08
65316;BMP280;51920;53.952;10.292;2023-04-24T02:50:39;99477.94;;;12.00
65316;BMP280;51920;53.952;10.292;2023-04-24T02:53:05;99481.97;;;12.12
65316;BMP280;51920;53.952;10.292;2023-04-24T02:55:32;99481.78;;;12.02
65316;BMP280;51920;53.952;10.292;2023-04-24T02:57:59;99485.72;;;11.98
65316;BMP280;51920;53.952;10.292;2023-04-24T03:00:25;99491.25;;;11.94
65316;BMP280;51920;53.952;10.292;2023-04-24T03:02:52;99485.22;;;11.83
65316;BMP280;51920;53.952;10.292;2023-04-24T03:05:19;99481.50;;;11.77
65316;BMP280;51920;53.952;10.292;2023-04-24T03:07:46;99476.63;;;11.68
65316;BMP280;51920;53.952;10.292;2023-04-24T03:10:13;99473.00;;;11.75
65316;BMP280;51920;53.952;10.292;2023-04-24T03:12:40;99471.59;;;11.67
65316;BMP280;51920;53.952;10.292;2023-04-24T03:15:07;99467.06;;;11.60
65316;BMP280;51920;53.952;10.292;2023-04-24T03:17:36;99468.75;;;11.54
65316;BMP280;51920;53.952;10.292;2023-04-24T03:20:03;99473.03;;;11.51
65316;BMP280;51920;53.952;10.292;2023-04-24T03:22:32;99485.22;;;11.43
65316;BMP280;51920;53.952;10.292;2023-04-24T03:25:02;99480.66;;;11.36
65316;BMP280;51920;53.952;10.292;2023-04-24T03:27:30;99479.91;;;11.36
65316;BMP280;51920;53.952;10.292;2023-04-24T03:30:02;99471.50;;;11.30
65316;BMP280;51920;53.952;10.292;2023-04-24T03:32:41;99479.13;;;11.35
65316;BMP280;51920;53.952;10.292;2023-04-24T03:35:11;99476.44;;;11.35
65316;BMP280;51920;53.952;10.292;2023-04-24T03:37:38;99475.72;;;11.31
65316;BMP280;51920;53.952;10.292;2023-04-24T03:40:28;99474.59;;;11.29
65316;BMP280;51920;53.952;10.292;2023-04-24T03:42:56;99480.09;;;11.25
65316;BMP280;51920;53.952;10.292;2023-04-24T03:45:23;99472.84;;;11.18
65316;BMP280;51920;53.952;10.292;2023-04-24T03:47:51;99472.53;;;11.13
65316;BMP280;51920;53.952;10.292;2023-04-24T03:50:18;99475.22;;;11.16
65316;BMP280;51920;53.952;10.292;2023-04-24T03:52:45;99475.69;;;11.11
65316;BMP280;51920;53.952;10.292;2023-04-24T03:55:21;99473.13;;;11.24
65316;BMP280;51920;53.952;10.292;2023-04-24T03:57:48;99472.09;;;11.18
65316;BMP280;51920;53.952;10.292;2023-04-24T04:00:20;99479.19;;;11.08
65316;BMP280;51920;53.952;10.292;2023-04-24T04:02:55;99472.78;;;10.98
65316;BMP280;51920;53.952;10.292;2023-04-24T04:05:21;99474.25;;;11.03
65316;BMP280;51920;53.952;10.292;2023-04-24T04:07:49;99480.19;;;10.94
65316;BMP280;51920;53.952;10.292;2023-04-24T04:10:16;99473.66;;;10.92
65316;BMP280;51920;53.952;10.292;2023-04-24T04:12:43;99468.19;;;10.95
65316;BMP280;51920;53.952;10.292;2023-04-24T04:15:10;99469.34;;;10.94
65316;BMP280;51920;53.952;10.292;2023-04-24T04:17:37;99475.22;;;10.89
65316;BMP280;51920;53.952;10.292;2023-04-24T04:20:06;99474.88;;;10.87
65316;BMP280;51920;53.952;10.292;2023-04-24T04:22:37;99483.84;;;10.84
65316;BMP280;51920;53.952;10.292;2023-04-24T04:25:07;99474.41;;;10.92
65316;BMP280;51920;53.952;10.292;2023-04-24T04:27:35;99478.78;;;10.86
65316;BMP280;51920;53.952;10.292;2023-04-24T04:30:08;99474.53;;;10.85
65316;BMP280;51920;53.952;10.292;2023-04-24T04:33:05;99475.31;;;10.82
65316;BMP280;51920;53.952;10.292;2023-04-24T04:35:33;99472.22;;;10.84
65316;BMP280;51920;53.952;10.292;2023-04-24T04:38:00;99477.91;;;10.89
65316;BMP280;51920;53.952;10.292;2023-04-24T04:40:46;99478.78;;;10.86
65316;BMP280;51920;53.952;10.292;2023-04-24T04:43:15;99478.56;;;11.01
65316;BMP280;51920;53.952;10.292;2023-04-24T04:45:49;99472.22;;;11.11
65316;BMP280;51920;53.952;10.292;2023-04-24T04:48:40;99474.81;;;11.18
65316;BMP280;51920;53.952;10.292;2023-04-24T04:51:07;99481.03;;;11.15
65316;BMP280;51920;53.952;10.292;2023-04-24T04:53:33;99484.66;;;11.28
65316;BMP280;51920;53.952;10.292;2023-04-24T04:56:01;99483.94;;;11.48
65316;BMP280;51920;53.952;10.292;2023-04-24T04:58:38;99488.84;;;11.56
65316;BMP280;51920;53.952;10.292;2023-04-24T05:01:08;99486.44;;;11.82
65316;BMP280;51920;53.952;10.292;2023-04-24T05:03:39;99491.03;;;11.85
65316;BMP280;51920;53.952;10.292;2023-04-24T05:06:10;99487.34;;;11.95
65316;BMP280;51920;53.952;10.292;2023-04-24T05:08:38;99481.47;;;11.97
65316;BMP280;51920;53.952;10.292;2023-04-24T05:11:08;99491.56;;;12.16
65316;BMP280;51920;53.952;10.292;2023-04-24T05:13:36;99493.03;;;12.21
65316;BMP280;51920;53.952;10.292;2023-04-24T05:16:09;99496.19;;;12.36
65316;BMP280;51920;53.952;10.292;2023-04-24T05:18:37;99485.53;;;12.45
65316;BMP280;51920;53.952;10.292;2023-04-24T05:21:05;99490.47;;;12.50
65316;BMP280;51920;53.952;10.292;2023-04-24T05:23:32;99490.75;;;12.72
65316;BMP280;51920;53.952;10.292;2023-04-24T05:26:00;99493.97;;;12.83
65316;BMP280;51920;53.952;10.292;2023-04-24T05:28:28;99488.28;;;12.94
65316;BMP280;51920;53.952;10.292;2023-04-24T05:31:08;99485.81;;;13.16
65316;BMP280;51920;53.952;10.292;2023-04-24T05:33:35;99481.75;;;13.37
65316;BMP280;51920;53.952;10.292;2023-04-24T05:36:02;99487.47;;;13.72
65316;BMP280;51920;53.952;10.292;2023-04-24T05:38:29;99483.19;;;13.71
65316;BMP280;51920;53.952;10.292;2023-04-24T05:40:56;99485.81;;;13.74
65316;BMP280;51920;53.952;10.292;2023-04-24T05:43:22;99494.13;;;13.84
65316;BMP280;51920;53.952;10.292;2023-04-24T05:45:49;99494.38;;;14.02
65316;BMP280;51920;53.952;10.292;2023-04-24T05:48:17;99498.25;;;14.30
65316;BMP280;51920;53.952;10.292;2023-04-24T05:50:44;99494.28;;;14.57
65316;BMP280;51920;53.952;10.292;2023-04-24T05:53:11;99497.22;;;14.75
65316;BMP280;51920;53.952;10.292;2023-04-24T05:55:37;99508.09;;;15.01
65316;BMP280;51920;53.952;10.292;2023-04-24T05:58:05;99496.84;;;14.99
65316;BMP280;51920;53.952;10.292;2023-04-24T06:00:34;99508.50;;;15.12
65316;BMP280;51920;53.952;10.292;2023-04-24T06:03:06;99502.84;;;15.41
65316;BMP280;51920;53.952;10.292;2023-04-24T06:05:32;99498.75;;;15.46
65316;BMP280;51920;53.952;10.292;2023-04-24T06:08:01;99500.78;;;14.98
65316;BMP280;51920;53.952;10.292;2023-04-24T06:10:32;99502.44;;;14.82
65316;BMP280;51920;53.952;10.292;2023-04-24T06:12:59;99502.44;;;14.82
65316;BMP280;51920;53.952;10.292;2023-04-24T06:15:30;99496.28;;;14.44
65316;BMP280;51920;53.952;10.292;2023-04-24T06:18:05;99506.47;;;14.01
65316;BMP280;51920;53.952;10.292;2023-04-24T06:20:32;99502.63;;;13.86
65316;BMP280;51920;53.952;10.292;2023-04-24T06:23:01;99505.81;;;14.10
65316;BMP280;51920;53.952;10.292;2023-04-24T06:25:28;99489.53;;;14.23
65316;BMP280;51920;53.952;10.292;2023-04-24T06:27:55;99504.31;;;14.22
65316;BMP280;51920;53.952;10.292;2023-04-24T06:30:22;99504.09;;;14.16
65316;BMP280;51920;53.952;10.292;2023-04-24T06:32:49;99495.75;;;13.94
65316;BMP280;51920;53.952;10.292;2023-04-24T06:35:15;99503.84;;;13.98
65316;BMP280;51920;53.952;10.292;2023-04-24T06:37:42;99498.41;;;13.98
65316;BMP280;51920;53.952;10.292;2023-04-24T06:40:10;99502.97;;;14.01
65316;BMP280;51920;53.952;10.292;2023-04-24T06:42:37;99496.56;;;14.07
65316;BMP280;51920;53.952;10.292;2023-04-24T06:45:07;99490.75;;;13.80
65316;BMP280;51920;53.952;10.292;2023-04-24T06:47:33;99494.06;;;13.71
65316;BMP280;51920;53.952;10.292;2023-04-24T06:50:01;99495.59;;;14.27
65316;BMP280;51920;53.952;10.292;2023-04-24T06:52:28;99498.22;;;14.43
65316;BMP280;51920;53.952;10.292;2023-04-24T06:55:00;99504.13;;;14.54
65316;BMP280;51920;53.952;10.292;2023-04-24T06:57:29;99502.81;;;14.33
65316;BMP280;51920;53.952;10.292;2023-04-24T06:59:56;99499.97;;;14.50
65316;BMP280;51920;53.952;10.292;2023-04-24T07:02:23;99504.53;;;14.27
65316;BMP280;51920;53.952;10.292;2023-04-24T07:04:49;99493.09;;;14.32
65316;BMP280;51920;53.952;10.292;2023-04-24T07:07:17;99493.66;;;14.53
65316;BMP280;51920;53.952;10.292;2023-04-24T07:09:43;99488.41;;;14.58
65316;BMP280;51920;53.952;10.292;2023-04-24T07:12:11;99486.34;;;14.50
65316;BMP280;51920;53.952;10.292;2023-04-24T07:14:39;99485.03;;;14.42
65316;BMP280;51920;53.952;10.292;2023-04-24T07:17:06;99487.41;;;14.91
65316;BMP280;51920;53.952;10.292;2023-04-24T07:19:33;99493.03;;;14.96
65316;BMP280;51920;53.952;10.292;2023-04-24T07:22:01;99483.94;;;14.77
65316;BMP280;51920;53.952;10.292;2023-04-24T07:24:28;99487.63;;;14.83
65316;BMP280;51920;53.952;10.292;2023-04-24T07:26:56;99491.78;;;14.63
65316;BMP280;51920;53.952;10.292;2023-04-24T07:29:23;99491.56;;;14.57
65316;BMP280;51920;53.952;10.292;2023-04-24T07:31:50;99494.84;;;14.52
65316;BMP280;51920;53.952;10.292;2023-04-24T07:34:17;99491.16;;;14.58
65316;BMP280;51920;53.952;10.292;2023-04-24T07:36:44;99488.97;;;14.41
65316;BMP280;51920;53.952;10.292;2023-04-24T07:39:10;99489.72;;;14.41
65316;BMP280;51920;53.952;10.292;2023-04-24T07:41:37;99498.66;;;14.42
65316;BMP280;51920;53.952;10.292;2023-04-24T07:44:04;99501.91;;;14.62
65316;BMP280;51920;53.952;10.292;2023-04-24T07:46:31;99508.69;;;14.57
65316;BMP280;51920;53.952;10.292;2023-04-24T07:48:58;99511.59;;;14.63
65316;BMP280;51920;53.952;10.292;2023-04-24T07:51:37;99508.72;;;15.05
65316;BMP280;51920;53.952;10.292;2023-04-24T07:54:05;99508.84;;;15.01
65316;BMP280;51920;53.952;10.292;2023-04-24T07:56:34;99519.56;;;15.31
65316;BMP280;51920;53.952;10.292;2023-04-24T07:59:05;99519.34;;;15.60
65316;BMP280;51920;53.952;10.292;2023-04-24T08:01:32;99519.59;;;15.75
65316;BMP280;51920;53.952;10.292;2023-04-24T08:03:59;99516.69;;;16.00
65316;BMP280;51920;53.952;10.292;2023-04-24T08:06:26;99519.97;;;15.86
65316;BMP280;51920;53.952;10.292;2023-04-24T08:08:56;99524.53;;;15.89
65316;BMP280;51920;53.952;10.292;2023-04-24T08:11:24;99526.88;;;15.78
65316;BMP280;51920;53.952;10.292;2023-04-24T08:13:51;99529.16;;;15.79
65316;BMP280;51920;53.952;10.292;2023-04-24T08:16:17;99534.41;;;15.30
65316;BMP280;51920;53.952;10.292;2023-04-24T08:18:44;99533.91;;;15.09
65316;BMP280;51920;53.952;10.292;2023-04-24T08:21:11;99530.13;;;14.94
65316;BMP280;51920;53.952;10.292;2023-04-24T08:23:43;99525.56;;;14.91
65316;BMP280;51920;53.952;10.292;2023-04-24T08:26:10;99530.06;;;14.85
65316;BMP280;51920;53.952;10.292;2023-04-24T08:28:37;99521.53;;;14.82
65316;BMP280;51920;53.952;10.292;2023-04-24T08:31:05;99524.59;;;14.59
65316;BMP280;51920;53.952;10.292;2023-04-24T08:33:31;99533.75;;;14.78
65316;BMP280;51920;53.952;10.292;2023-04-24T08:36:05;99532.66;;;14.88
65316;BMP280;51920;53.952;10.292;2023-04-24T08:38:32;99538.22;;;14.85
65316;BMP280;51920;53.952;10.292;2023-04-24T08:41:00;99540.81;;;15.01
65316;BMP280;51920;53.952;10.292;2023-04-24T08:43:28;99535.19;;;15.17
65316;BMP280;51920;53.952;10.292;2023-04-24T08:45:56;99537.97;;;15.61
65316;BMP280;51920;53.952;10.292;2023-04-24T08:48:23;99542.34;;;16.03
65316;BMP280;51920;53.952;10.292;2023-04-24T08:50:56;99542.06;;;15.79
65316;BMP280;51920;53.952;10.292;2023-04-24T08:53:24;99546.75;;;15.78
65316;BMP280;51920;53.952;10.292;2023-04-24T08:55:54;99550.38;;;15.97
65316;BMP280;51920;53.952;10.292;2023-04-24T08:58:21;99555.59;;;16.13
65316;BMP280;51920;53.952;10.292;2023-04-24T09:00:49;99541.63;;;16.11
65316;BMP280;51920;53.952;10.292;2023-04-24T09:03:16;99562.75;;;15.67
65316;BMP280;51920;53.952;10.292;2023-04-24T09:05:46;99560.03;;;15.32
65316;BMP280;51920;53.952;10.292;2023-04-24T09:08:13;99562.28;;;15.12
65316;BMP280;51920;53.952;10.292;2023-04-24T09:10:41;99559.50;;;14.90
65316;BMP280;51920;53.952;10.292;2023-04-24T09:13:08;99555.28;;;15.11
65316;BMP280;51920;53.952;10.292;2023-04-24T09:15:38;99557.81;;;15.05
65316;BMP280;51920;53.952;10.292;2023-04-24T09:18:05;99561.31;;;14.93
65316;BMP280;51920;53.952;10.292;2023-04-24T09:20:32;99562.75;;;14.85
65316;BMP280;51920;53.952;10.292;2023-04-24T09:22:59;99571.50;;;14.67
65316;BMP280;51920;53.952;10.292;2023-04-24T09:25:32;99556.00;;;14.64
65316;BMP280;51920;53.952;10.292;2023-04-24T09:28:04;99559.38;;;14.55
65316;BMP280;51920;53.952;10.292;2023-04-24T09:30:31;99554.34;;;14.41
65316;BMP280;51920;53.952;10.292;2023-04-24T09:33:14;99566.22;;;14.98
65316;BMP280;51920;53.952;10.292;2023-04-24T09:35:51;99577.09;;;15.23
65316;BMP280;51920;53.952;10.292;2023-04-24T09:38:22;99572.47;;;15.33
65316;BMP280;51920;53.952;10.292;2023-04-24T09:40:59;99573.50;;;15.14
65316;BMP280;51920;53.952;10.292;2023-04-24T09:43:28;99572.59;;;15.30
65316;BMP280;51920;53.952;10.292;2023-04-24T09:45:56;99575.22;;;15.20
65316;BMP280;51920;53.952;10.292;2023-04-24T09:48:31;99568.44;;;14.90
65316;BMP280;51920;53.952;10.292;2023-04-24T09:50:58;99580.69;;;15.20
65316;BMP280;51920;53.952;10.292;2023-04-24T09:53:26;99567.03;;;15.20
65316;BMP280;51920;53.952;10.292;2023-04-24T09:55:53;99581.25;;;15.15
65316;BMP280;51920;53.952;10.292;2023-04-24T09:58:45;99570.06;;;15.00
65316;BMP280;51920;53.952;10.292;2023-04-24T10:01:12;99579.91;;;15.33
65316;BMP280;51920;53.952;10.292;2023-04-24T10:03:42;99579.16;;;15.19
65316;BMP280;51920;53.952;10.292;2023-04-24T10:06:11;99578.09;;;15.52
65316;BMP280;51920;53.952;10.292;2023-04-24T10:08:38;99588.06;;;15.67
65316;BMP280;51920;53.952;10.292;2023-04-24T10:11:05;99578.88;;;15.74
65316;BMP280;51920;53.952;10.292;2023-04-24T10:13:32;99583.94;;;15.85
65316;BMP280;51920;53.952;10.292;2023-04-24T10:16:00;99582.97;;;15.69
65316;BMP280;51920;53.952;10.292;2023-04-24T10:18:27;99584.97;;;15.78
65316;BMP280;51920;53.952;10.292;2023-04-24T10:20:54;99586.28;;;15.52
65316;BMP280;51920;53.952;10.292;2023-04-24T10:23:21;99588.22;;;15.29
65316;BMP280;51920;53.952;10.292;2023-04-24T10:25:50;99590.03;;;15.45
65316;BMP280;51920;53.952;10.292;2023-04-24T10:28:18;99588.44;;;15.57
65316;BMP280;51920;53.952;10.292;2023-04-24T10:30:46;99586.41;;;15.13
65316;BMP280;51920;53.952;10.292;2023-04-24T10:33:13;99586.91;;;15.21
65316;BMP280;51920;53.952;10.292;2023-04-24T10:35:42;99579.81;;;15.23
65316;BMP280;51920;53.952;10.292;2023-04-24T10:38:13;99583.66;;;15.48
65316;BMP280;51920;53.952;10.292;2023-04-24T10:40:42;99591.34;;;15.75
65316;BMP280;51920;53.952;10.292;2023-04-24T10:43:09;99590.72;;;15.93
65316;BMP280;51920;53.952;10.292;2023-04-24T10:45:38;99595.63;;;16.07
65316;BMP280;51920;53.952;10.292;2023-04-24T10:48:08;99600.97;;;15.89
65316;BMP280;51920;53.952;10.292;2023-04-24T10:50:46;99596.72;;;15.88
65316;BMP280;51920;53.952;10.292;2023-04-24T10:53:17;99602.63;;;15.86
65316;BMP280;51920;53.952;10.292;2023-04-24T10:55:50;99598.97;;;15.45
65316;BMP280;51920;53.952;10.292;2023-04-24T10:58:25;99594.84;;;15.28
65316;BMP280;51920;53.952;10.292;2023-04-24T11:01:01;99600.09;;;15.22
65316;BMP280;51920;53.952;10.292;2023-04-24T11:03:30;99604.38;;;15.11
65316;BMP280;51920;53.952;10.292;2023-04-24T11:11:13;99605.91;;;15.12
65316;BMP280;51920;53.952;10.292;2023-04-24T11:19:00;99607.28;;;15.42
65316;BMP280;51920;53.952;10.292;2023-04-24T11:21:31;99612.53;;;15.71
65316;BMP280;51920;53.952;10.292;2023-04-24T11:23:58;99608.84;;;15.87
65316;BMP280;51920;53.952;10.292;2023-04-24T11:26:45;99610.31;;;16.01
65316;BMP280;51920;53.952;10.292;2023-04-24T11:29:12;99604.56;;;16.21
65316;BMP280;51920;53.952;10.292;2023-04-24T11:31:40;99599.81;;;15.99
65316;BMP280;51920;53.952;10.292;2023-04-24T11:34:16;99597.84;;;15.78
65316;BMP280;51920;53.952;10.292;2023-04-24T11:36:44;99595.09;;;15.56
65316;BMP280;51920;53.952;10.292;2023-04-24T11:39:12;99600.00;;;15.83
65316;BMP280;51920;53.952;10.292;2023-04-24T11:41:39;99601.25;;;15.82
65316;BMP280;51920;53.952;10.292;2023-04-24T11:44:07;99604.19;;;15.87
65316;BMP280;51920;53.952;10.292;2023-04-24T11:46:34;99608.41;;;16.10
65316;BMP280;51920;53.952;10.292;2023-04-24T11:49:01;99598.81;;;16.28
65316;BMP280;51920;53.952;10.292;2023-04-24T11:51:28;99604.78;;;16.13
65316;BMP280;51920;53.952;10.292;2023-04-24T11:53:56;99614.03;;;15.94
65316;BMP280;51920;53.952;10.292;2023-04-24T11:56:28;99613.78;;;15.57
65316;BMP280;51920;53.952;10.292;2023-04-24T11:58:55;99611.50;;;15.78
65316;BMP280;51920;53.952;10.292;2023-04-24T12:01:21;99613.09;;;16.10
65316;BMP280;51920;53.952;10.292;2023-04-24T12:03:49;99611.66;;;15.96
65316;BMP280;51920;53.952;10.292;2023-04-24T12:06:17;99605.84;;;15.94
65316;BMP280;51920;53.952;10.292;2023-04-24T12:08:46;99610.50;;;16.06
65316;BMP280;51920;53.952;10.292;2023-04-24T12:11:15;99607.91;;;16.03
65316;BMP280;51920;53.952;10.292;2023-04-24T12:13:43;99606.53;;;15.98
65316;BMP280;51920;53.952;10.292;2023-04-24T12:16:10;99614.81;;;15.95
65316;BMP280;51920;53.952;10.292;2023-04-24T12:18:44;99612.94;;;15.82
65316;BMP280;51920;53.952;10.292;2023-04-24T12:21:20;99608.72;;;15.68
65316;BMP280;51920;53.952;10.292;2023-04-24T12:23:48;99615.75;;;15.44
65316;BMP280;51920;53.952;10.292;2023-04-24T12:26:19;99612.00;;;15.63
65316;BMP280;51920;53.952;10.292;2023-04-24T12:28:48;99598.03;;;15.61
65316;BMP280;51920;53.952;10.292;2023-04-24T12:31:16;99601.75;;;15.55
65316;BMP280;51920;53.952;10.292;2023-04-24T12:33:43;99598.41;;;15.51
65316;BMP280;51920;53.952;10.292;2023-04-24T12:36:10;99603.44;;;15.52
65316;BMP280;51920;53.952;10.292;2023-04-24T12:38:39;99603.75;;;15.54
65316;BMP280;51920;53.952;10.292;2023-04-24T12:41:12;99597.13;;;15.42
65316;BMP280;51920;53.952;10.292;2023-04-24T12:43:53;99602.53;;;15.55
65316;BMP280;51920;53.952;10.292;2023-04-24T12:46:21;99591.56;;;15.90
65316;BMP280;51920;53.952;10.292;2023-04-24T12:48:48;99595.91;;;15.78
65316;BMP280;51920;53.952;10.292;2023-04-24T12:51:14;99600.19;;;15.88
65316;BMP280;51920;53.952;10.292;2023-04-24T12:53:41;99603.19;;;15.81
65316;BMP280;51920;53.952;10.292;2023-04-24T12:56:08;99601.38;;;15.78
65316;BMP280;51920;53.952;10.292;2023-04-24T12:58:35;99602.94;;;15.66
65316;BMP280;51920;53.952;10.292;2023-04-24T13:01:01;99606.50;;;15.76
65316;BMP280;51920;53.952;10.292;2023-04-24T13:03:28;99606.75;;;15.69
65316;BMP280;51920;53.952;10.292;2023-04-24T13:05:55;99604.00;;;15.69
65316;BMP280;51920;53.952;10.292;2023-04-24T13:08:22;99610.34;;;15.66
65316;BMP280;51920;53.952;10.292;2023-04-24T13:10:49;99606.81;;;15.78
65316;BMP280;51920;53.952;10.292;2023-04-24T13:13:15;99613.09;;;15.88
65316;BMP280;51920;53.952;10.292;2023-04-24T13:15:42;99613.78;;;15.57
65316;BMP280;51920;53.952;10.292;2023-04-24T13:18:09;99607.78;;;15.49
65316;BMP280;51920;53.952;10.292;2023-04-24T13:20:35;99616.56;;;15.66
65316;BMP280;51920;53.952;10.292;2023-04-24T13:23:03;99613.28;;;15.72
65316;BMP280;51920;53.952;10.292;2023-04-24T13:25:35;99611.00;;;15.35
65316;BMP280;51920;53.952;10.292;2023-04-24T13:28:01;99603.47;;;15.26
65316;BMP280;51920;53.952;10.292;2023-04-24T13:30:28;99602.31;;;15.15
65316;BMP280;51920;53.952;10.292;2023-04-24T13:32:55;99612.34;;;15.31
65316;BMP280;51920;53.952;10.292;2023-04-24T13:35:21;99609.59;;;15.18
65316;BMP280;51920;53.952;10.292;2023-04-24T13:37:48;99609.97;;;15.20
65316;BMP280;51920;53.952;10.292;2023-04-24T13:40:15;99616.84;;;14.99
65316;BMP280;51920;53.952;10.292;2023-04-24T13:42:42;99616.59;;;14.80
65316;BMP280;51920;53.952;10.292;2023-04-24T13:45:09;99605.16;;;14.73
65316;BMP280;51920;53.952;10.292;2023-04-24T13:47:43;99615.16;;;14.63
65316;BMP280;51920;53.952;10.292;2023-04-24T13:50:09;99617.34;;;14.68
65316;BMP280;51920;53.952;10.292;2023-04-24T13:52:36;99620.56;;;14.67
65316;BMP280;51920;53.952;10.292;2023-04-24T13:55:05;99622.03;;;14.80
65316;BMP280;51920;53.952;10.292;2023-04-24T13:57:32;99618.25;;;14.65
65316;BMP280;51920;53.952;10.292;2023-04-24T13:59:58;99609.53;;;14.70
65316;BMP280;51920;53.952;10.292;2023-04-24T14:02:32;99614.53;;;14.72
65316;BMP280;51920;53.952;10.292;2023-04-24T14:04:59;99608.53;;;14.64
65316;BMP280;51920;53.952;10.292;2023-04-24T14:07:27;99606.78;;;14.57
65316;BMP280;51920;53.952;10.292;2023-04-24T14:09:54;99608.53;;;14.51
65316;BMP280;51920;53.952;10.292;2023-04-24T14:12:21;99611.22;;;14.38
65316;BMP280;51920;53.952;10.292;2023-04-24T14:14:47;99610.69;;;14.44